Time;durP1;ratioP1;P1;durP2;ratioP2;P2;SDS_P1;SDS_P2;PMS_P1;PMS_P2;Temp;Humidity;BMP_temperature;BMP_pressure;BME280_temperature;BME280_humidity;BME280_pressure;Samples;Min_cycle;Max_cycle;Signal;HPM_P1;HPM_P2
2022/04/15 00:00:22;;;;;;;2.80;1.60;;;17.70;99.90;;;;;;5106730;27;20547;-81
2022/04/15 00:02:50;;;;;;;1.47;1.37;;;17.70;99.90;;;;;;5108074;27;20464;-82
2022/04/15 00:05:36;;;;;;;1.80;1.60;;;17.60;99.90;;;;;;5101450;28;20480;-82
2022/04/15 00:08:05;;;;;;;2.67;1.87;;;17.50;99.90;;;;;;5106026;27;20471;-80
2022/04/15 00:10:34;;;;;;;2.67;1.70;;;17.50;99.90;;;;;;5106445;27;20814;-82
2022/04/15 00:13:03;;;;;;;2.00;1.90;;;17.50;99.90;;;;;;5106137;27;20448;-82
2022/04/15 00:15:32;;;;;;;1.87;1.73;;;17.60;99.90;;;;;;5110815;27;20476;-82
2022/04/15 00:18:01;;;;;;;2.50;2.30;;;17.50;99.90;;;;;;5111259;28;20459;-81
2022/04/15 00:20:30;;;;;;;4.20;2.63;;;17.50;99.90;;;;;;5107460;27;20456;-81
2022/04/15 00:22:59;;;;;;;2.17;1.93;;;17.50;99.90;;;;;;5110646;27;20451;-81
2022/04/15 00:25:28;;;;;;;2.30;2.10;;;17.50;99.90;;;;;;5107145;27;20484;-82
2022/04/15 00:27:56;;;;;;;3.43;1.90;;;17.50;99.90;;;;;;5110818;28;20463;-82
2022/04/15 00:30:24;;;;;;;2.30;1.83;;;17.50;99.90;;;;;;5091627;28;20459;-81
2022/04/15 00:32:52;;;;;;;2.63;2.10;;;17.50;99.90;;;;;;5111977;27;20452;-82
2022/04/15 00:35:21;;;;;;;2.60;1.90;;;17.50;99.90;;;;;;5108847;27;22010;-81
2022/04/15 00:37:50;;;;;;;2.50;2.00;;;17.50;99.90;;;;;;5114105;27;20936;-82
2022/04/15 00:40:18;;;;;;;1.93;1.83;;;17.50;99.90;;;;;;5110320;27;20453;-82
2022/04/15 00:42:47;;;;;;;3.40;2.00;;;17.50;99.90;;;;;;5111318;27;20452;-82
2022/04/15 00:45:15;;;;;;;4.53;1.87;;;17.50;99.90;;;;;;5104490;27;20473;-83
2022/04/15 00:47:48;;;;;;;2.27;1.83;;;17.50;99.90;;;;;;5110751;27;20472;-83
2022/04/15 00:50:17;;;;;;;3.43;1.80;;;17.50;99.90;;;;;;5104496;27;20990;-83
2022/04/15 00:52:47;;;;;;;3.33;1.73;;;17.40;99.90;;;;;;5116681;27;20788;-81
2022/04/15 00:55:19;;;;;;;2.50;1.80;;;17.40;99.90;;;;;;5107172;27;20463;-82
2022/04/15 00:57:50;;;;;;;2.20;1.67;;;17.40;99.90;;;;;;5102841;27;20450;-81
2022/04/15 01:00:20;;;;;;;3.23;1.93;;;17.30;99.90;;;;;;5109413;27;20874;-79
2022/04/15 01:02:49;;;;;;;4.33;2.20;;;17.30;99.90;;;;;;5101891;27;20444;-80
2022/04/15 01:05:18;;;;;;;4.63;2.50;;;17.20;99.90;;;;;;5103707;27;20479;-81
2022/04/15 01:07:49;;;;;;;2.10;2.00;;;17.10;99.90;;;;;;5100336;27;20540;-81
2022/04/15 01:10:20;;;;;;;2.47;2.27;;;17.10;99.90;;;;;;5097409;28;20451;-79
2022/04/15 01:12:51;;;;;;;5.47;2.00;;;17.10;99.90;;;;;;5108386;27;20464;-82
2022/04/15 01:15:40;;;;;;;4.13;2.07;;;17.10;99.90;;;;;;5105629;27;20487;-81
2022/04/15 01:18:08;;;;;;;4.37;2.40;;;17.10;99.90;;;;;;5103040;28;20461;-80
2022/04/15 01:20:38;;;;;;;2.50;2.30;;;17.10;99.90;;;;;;5103827;27;20791;-81
2022/04/15 01:23:09;;;;;;;4.67;2.83;;;17.10;99.90;;;;;;5105227;27;20469;-82
2022/04/15 01:25:38;;;;;;;4.87;3.20;;;17.00;99.90;;;;;;5104624;28;20479;-81
2022/04/15 01:28:07;;;;;;;4.37;3.37;;;17.10;99.90;;;;;;5103587;27;20503;-82
2022/04/15 01:30:35;;;;;;;3.90;3.07;;;17.00;99.90;;;;;;5096491;28;20490;-81
2022/04/15 01:33:03;;;;;;;5.37;3.30;;;17.00;99.90;;;;;;5111544;27;21176;-80
2022/04/15 01:35:34;;;;;;;2.40;2.20;;;17.00;99.90;;;;;;5104245;28;20507;-81
2022/04/15 01:38:04;;;;;;;3.63;2.60;;;17.10;99.90;;;;;;5112721;27;20551;-81
2022/04/15 01:40:34;;;;;;;3.50;2.30;;;17.10;99.90;;;;;;5098708;28;20981;-81
2022/04/15 01:43:03;;;;;;;4.47;2.60;;;17.10;99.90;;;;;;5103736;27;20466;-81
2022/04/15 01:45:32;;;;;;;3.33;2.53;;;17.10;99.90;;;;;;5098385;28;20512;-82
2022/04/15 01:48:00;;;;;;;4.40;3.30;;;17.10;99.90;;;;;;5101328;27;20829;-82
2022/04/15 01:50:29;;;;;;;2.70;2.50;;;17.10;99.90;;;;;;5105451;28;20950;-82
2022/04/15 01:52:58;;;;;;;5.07;3.53;;;17.10;99.90;;;;;;5103664;27;20456;-83
2022/04/15 01:55:27;;;;;;;3.20;2.73;;;17.00;99.90;;;;;;5103377;27;20467;-81
2022/04/15 01:57:57;;;;;;;2.73;2.40;;;17.00;99.90;;;;;;5082624;27;20470;-82
2022/04/15 02:00:25;;;;;;;3.30;2.50;;;17.10;99.90;;;;;;5102066;27;21059;-80
2022/04/15 02:02:55;;;;;;;5.07;2.30;;;17.00;99.90;;;;;;5107322;27;20445;-82
2022/04/15 02:05:23;;;;;;;3.70;2.40;;;16.90;99.90;;;;;;5106684;27;20477;-81
2022/04/15 02:07:51;;;;;;;3.10;2.20;;;16.90;99.90;;;;;;5108825;27;20487;-82
2022/04/15 02:10:19;;;;;;;4.20;2.80;;;17.00;99.90;;;;;;5107620;27;20452;-80
2022/04/15 02:12:47;;;;;;;3.30;2.10;;;16.90;99.90;;;;;;5104829;27;20463;-83
2022/04/15 02:15:17;;;;;;;3.43;2.43;;;17.00;99.90;;;;;;5104459;28;20473;-81
2022/04/15 02:17:45;;;;;;;3.40;2.40;;;16.90;99.90;;;;;;5105139;27;20464;-81
2022/04/15 02:20:13;;;;;;;2.73;2.47;;;17.00;99.90;;;;;;5109222;27;20459;-81
2022/04/15 02:22:41;;;;;;;4.53;2.70;;;16.90;99.90;;;;;;5102631;27;20822;-82
2022/04/15 02:25:10;;;;;;;2.50;2.27;;;16.90;99.90;;;;;;5108197;28;20509;-83
2022/04/15 02:27:38;;;;;;;5.80;2.67;;;16.90;99.90;;;;;;5099744;28;20492;-82
2022/04/15 02:30:07;;;;;;;2.70;2.50;;;16.90;99.90;;;;;;5102182;27;20448;-82
2022/04/15 02:32:37;;;;;;;2.67;2.47;;;16.80;99.90;;;;;;5106179;27;20443;-82
2022/04/15 02:35:08;;;;;;;2.80;2.13;;;16.80;99.90;;;;;;5100402;28;20482;-82
2022/04/15 02:37:36;;;;;;;3.40;2.27;;;16.80;99.90;;;;;;5103543;27;20477;-82
2022/04/15 02:40:06;;;;;;;2.70;2.13;;;16.80;99.90;;;;;;5104490;28;20469;-81
2022/04/15 02:42:35;;;;;;;2.57;2.20;;;16.80;99.90;;;;;;5100099;27;20448;-80
2022/04/15 02:45:04;;;;;;;3.17;2.30;;;16.90;99.90;;;;;;5104848;28;20990;-79
2022/04/15 02:47:32;;;;;;;3.60;2.43;;;16.80;99.90;;;;;;5081822;28;20458;-80
2022/04/15 02:50:02;;;;;;;4.17;2.30;;;16.80;99.90;;;;;;5103254;27;20456;-83
2022/04/15 02:52:30;;;;;;;3.43;2.07;;;16.80;99.90;;;;;;5105126;27;20456;-79
2022/04/15 02:54:58;;;;;;;2.13;1.90;;;16.80;99.90;;;;;;5105577;28;21389;-80
2022/04/15 02:57:26;;;;;;;3.20;2.40;;;16.70;99.90;;;;;;5102027;28;20496;-80
2022/04/15 02:59:54;;;;;;;2.40;2.20;;;16.70;99.90;;;;;;5101390;27;20455;-80
2022/04/15 03:02:22;;;;;;;3.23;2.20;;;16.70;99.90;;;;;;5108383;28;21327;-82
2022/04/15 03:04:51;;;;;;;2.47;2.27;;;17.00;99.90;;;;;;5103660;27;20503;-82
2022/04/15 03:07:21;;;;;;;3.67;1.80;;;16.60;99.90;;;;;;5106869;27;20455;-81
2022/04/15 03:09:49;;;;;;;2.50;2.30;;;16.60;99.90;;;;;;5099336;28;20477;-82
2022/04/15 03:12:17;;;;;;;2.47;2.27;;;16.70;99.90;;;;;;5088249;28;20528;-81
2022/04/15 03:14:45;;;;;;;3.40;2.90;;;16.60;99.90;;;;;;5102274;28;20483;-81
2022/04/15 03:17:13;;;;;;;2.37;2.10;;;16.70;99.90;;;;;;5104373;28;20477;-82
2022/04/15 03:19:42;;;;;;;3.23;2.80;;;16.60;99.90;;;;;;5082972;28;20473;-82
2022/04/15 03:22:10;;;;;;;3.07;2.20;;;16.60;99.90;;;;;;5106703;28;20444;-81
2022/04/15 03:24:39;;;;;;;3.23;2.97;;;16.60;99.90;;;;;;5100673;28;20461;-82
2022/04/15 03:27:07;;;;;;;5.27;2.90;;;16.60;99.90;;;;;;5100632;28;20442;-82
2022/04/15 03:29:36;;;;;;;3.03;2.40;;;16.60;99.90;;;;;;5105172;28;20482;-80
2022/04/15 03:32:04;;;;;;;3.80;2.20;;;16.50;99.90;;;;;;5115340;27;20515;-80
2022/04/15 03:34:33;;;;;;;3.43;2.90;;;16.50;99.90;;;;;;5119637;27;20488;-82
2022/04/15 03:37:01;;;;;;;2.93;2.30;;;16.50;99.90;;;;;;5108995;27;20452;-79
2022/04/15 03:39:29;;;;;;;2.57;2.33;;;16.50;99.90;;;;;;5083538;28;20470;-81
2022/04/15 03:41:59;;;;;;;3.20;2.30;;;16.80;99.90;;;;;;5108548;27;20453;-81
2022/04/15 03:44:27;;;;;;;2.53;2.30;;;16.50;99.90;;;;;;5109667;27;20467;-80
2022/04/15 03:46:55;;;;;;;2.50;2.27;;;16.50;99.90;;;;;;5114060;27;20464;-80
2022/04/15 03:49:24;;;;;;;6.57;2.60;;;16.50;99.90;;;;;;5107474;27;20592;-81
2022/04/15 03:51:52;;;;;;;2.90;2.60;;;16.50;99.90;;;;;;5107945;27;20449;-81
2022/04/15 03:54:20;;;;;;;3.07;2.67;;;16.40;99.90;;;;;;5111616;27;20468;-80
2022/04/15 03:56:48;;;;;;;4.13;2.90;;;16.40;99.90;;;;;;5113665;27;20454;-81
2022/04/15 03:59:18;;;;;;;3.40;2.60;;;16.30;99.90;;;;;;5104814;27;20429;-79
2022/04/15 04:01:46;;;;;;;3.90;3.60;;;16.40;99.90;;;;;;5103930;27;20453;-80
2022/04/15 04:04:14;;;;;;;3.53;2.70;;;16.30;99.90;;;;;;5107289;27;20468;-81
2022/04/15 04:06:42;;;;;;;4.20;2.70;;;16.30;99.90;;;;;;5107531;27;21114;-81
2022/04/15 04:09:11;;;;;;;3.00;2.43;;;16.30;99.90;;;;;;5105911;27;20497;-80
2022/04/15 04:11:39;;;;;;;4.80;2.33;;;16.30;99.90;;;;;;5107487;27;20519;-81
2022/04/15 04:14:07;;;;;;;3.80;2.80;;;16.30;99.90;;;;;;5104906;27;20472;-81
2022/04/15 04:16:43;;;;;;;3.30;2.60;;;16.20;99.90;;;;;;5103968;27;20451;-80
2022/04/15 04:19:12;;;;;;;2.67;2.47;;;16.20;99.90;;;;;;5102192;28;20452;-80
2022/04/15 04:21:40;;;;;;;3.43;2.63;;;16.10;99.90;;;;;;5107601;27;20511;-81
2022/04/15 04:24:08;;;;;;;3.17;2.73;;;16.10;99.90;;;;;;5104702;27;20459;-78
2022/04/15 04:26:36;;;;;;;3.03;2.73;;;16.10;99.90;;;;;;5102707;28;20477;-80
2022/04/15 04:29:04;;;;;;;2.70;2.50;;;16.10;99.90;;;;;;5107881;27;20473;-80
2022/04/15 04:31:38;;;;;;;2.77;2.57;;;16.10;99.90;;;;;;5101711;27;20548;-80
2022/04/15 04:34:08;;;;;;;3.47;2.40;;;16.10;99.90;;;;;;5107481;27;20537;-78
2022/04/15 04:36:37;;;;;;;5.13;3.00;;;16.10;99.90;;;;;;5105238;27;20943;-79
2022/04/15 04:39:09;;;;;;;3.37;2.63;;;16.10;99.90;;;;;;5112432;27;20474;-79
2022/04/15 04:41:38;;;;;;;3.43;2.87;;;16.10;99.90;;;;;;5107420;27;20458;-80
2022/04/15 04:44:06;;;;;;;3.87;2.87;;;16.40;99.90;;;;;;5103325;27;20805;-81
2022/04/15 04:46:35;;;;;;;5.73;2.90;;;16.10;99.90;;;;;;5106851;27;20456;-80
2022/04/15 04:49:04;;;;;;;3.00;2.73;;;15.60;99.90;;;;;;5106378;27;20513;-82
2022/04/15 04:51:33;;;;;;;2.63;2.30;;;15.90;99.90;;;;;;5109234;27;20453;-81
2022/04/15 04:54:01;;;;;;;3.30;3.07;;;15.80;99.90;;;;;;5103210;28;20453;-81
2022/04/15 04:56:30;;;;;;;3.70;3.03;;;15.90;99.90;;;;;;5105097;27;20748;-82
2022/04/15 04:58:58;;;;;;;3.47;2.90;;;15.80;99.90;;;;;;5106185;27;21344;-81
2022/04/15 05:01:27;;;;;;;3.63;2.67;;;15.80;99.90;;;;;;5106334;28;20544;-80
2022/04/15 05:03:55;;;;;;;4.60;3.20;;;15.80;99.90;;;;;;5109013;27;20791;-81
2022/04/15 05:06:23;;;;;;;3.23;2.60;;;15.80;99.90;;;;;;5108875;27;20555;-81
2022/04/15 05:08:53;;;;;;;4.03;2.70;;;15.80;99.90;;;;;;5109990;27;20910;-80
2022/04/15 05:11:21;;;;;;;4.50;3.23;;;15.80;99.90;;;;;;5106254;27;20812;-80
2022/04/15 05:13:50;;;;;;;5.20;2.47;;;15.80;99.90;;;;;;5108932;27;20473;-80
2022/04/15 05:16:18;;;;;;;3.40;2.80;;;15.80;99.90;;;;;;5107010;27;20480;-81
2022/04/15 05:18:47;;;;;;;3.70;2.97;;;15.70;99.90;;;;;;5105272;27;20539;-80
2022/04/15 05:21:15;;;;;;;4.20;2.93;;;15.80;99.90;;;;;;5102461;27;21056;-76
2022/04/15 05:23:45;;;;;;;3.20;2.90;;;15.80;99.90;;;;;;5106297;27;20561;-81
2022/04/15 05:26:15;;;;;;;3.47;2.57;;;15.70;99.90;;;;;;5110821;27;20584;-80
2022/04/15 05:28:44;;;;;;;4.63;3.07;;;15.80;99.90;;;;;;5110839;27;20474;-81
2022/04/15 05:31:12;;;;;;;2.83;2.63;;;15.80;99.90;;;;;;5108093;27;20482;-80
2022/04/15 05:33:41;;;;;;;3.87;3.10;;;15.90;99.90;;;;;;5108640;27;20517;-80
2022/04/15 05:36:09;;;;;;;4.10;3.70;;;15.90;99.90;;;;;;5100477;27;20469;-78
2022/04/15 05:38:37;;;;;;;4.00;3.70;;;15.90;99.90;;;;;;5111000;27;20441;-79
2022/04/15 05:41:11;;;;;;;3.37;3.07;;;15.90;99.90;;;;;;5103370;27;20548;-80
2022/04/15 05:43:42;;;;;;;2.40;2.20;;;15.90;99.90;;;;;;5105788;27;20460;-80
2022/04/15 05:46:11;;;;;;;4.27;2.97;;;15.90;99.90;;;;;;5107381;27;20470;-79
2022/04/15 05:48:39;;;;;;;3.07;2.83;;;15.90;99.90;;;;;;5099815;28;20454;-80
2022/04/15 05:51:07;;;;;;;3.13;2.80;;;15.90;99.90;;;;;;5101904;27;21553;-80
2022/04/15 05:53:36;;;;;;;3.30;3.00;;;15.90;99.90;;;;;;5098714;28;20453;-81
2022/04/15 05:56:04;;;;;;;4.20;3.80;;;15.90;99.90;;;;;;5084440;28;20492;-80
2022/04/15 05:58:33;;;;;;;4.43;3.47;;;16.00;99.90;;;;;;5098688;27;20454;-81
2022/04/15 06:01:02;;;;;;;3.40;3.10;;;16.10;99.90;;;;;;5107807;27;20957;-80
2022/04/15 06:03:32;;;;;;;3.40;3.10;;;16.20;99.90;;;;;;5109152;27;20966;-81
2022/04/15 06:06:01;;;;;;;3.60;3.30;;;16.20;99.90;;;;;;5099231;27;20470;-81
2022/04/15 06:08:29;;;;;;;3.37;3.07;;;16.30;99.90;;;;;;5101481;27;20454;-80
2022/04/15 06:10:57;;;;;;;4.33;3.13;;;16.30;99.90;;;;;;5102305;27;20481;-79
2022/04/15 06:13:25;;;;;;;6.23;3.67;;;16.30;99.90;;;;;;5105163;27;20458;-80
2022/04/15 06:15:56;;;;;;;4.20;3.47;;;16.30;99.90;;;;;;5104240;27;20489;-80
2022/04/15 06:18:29;;;;;;;6.87;3.80;;;16.30;99.90;;;;;;5087498;28;20464;-81
2022/04/15 06:20:57;;;;;;;4.30;3.43;;;16.30;99.90;;;;;;5112497;27;20537;-80
2022/04/15 06:23:25;;;;;;;4.30;3.50;;;16.30;99.90;;;;;;5103895;27;20454;-79
2022/04/15 06:25:54;;;;;;;5.13;4.50;;;16.50;99.90;;;;;;5097664;27;20479;-78
2022/04/15 06:28:22;;;;;;;3.70;3.40;;;16.70;99.90;;;;;;5099754;27;20446;-77
2022/04/15 06:30:50;;;;;;;4.13;3.10;;;16.90;99.90;;;;;;5093883;27;20482;-79
2022/04/15 06:33:20;;;;;;;5.17;3.80;;;17.00;99.90;;;;;;5099939;28;20473;-79
2022/04/15 06:35:52;;;;;;;4.77;4.27;;;17.10;99.90;;;;;;5104473;27;21327;-79
2022/04/15 06:38:20;;;;;;;5.07;4.30;;;17.20;99.90;;;;;;5101837;27;20459;-79
2022/04/15 06:40:48;;;;;;;3.90;3.50;;;17.30;99.90;;;;;;5097071;28;20487;-79
2022/04/15 06:43:16;;;;;;;3.80;3.37;;;17.40;99.90;;;;;;5100367;27;20466;-79
2022/04/15 06:45:45;;;;;;;8.57;4.60;;;17.50;99.90;;;;;;5102811;27;20478;-79
2022/04/15 06:48:13;;;;;;;5.60;4.10;;;17.60;99.90;;;;;;5101209;27;20452;-80
2022/04/15 06:50:41;;;;;;;4.37;3.90;;;17.80;99.90;;;;;;5100058;28;20466;-79
2022/04/15 06:53:11;;;;;;;3.73;3.43;;;17.80;99.90;;;;;;5099876;28;20456;-79
2022/04/15 06:55:39;;;;;;;4.40;4.00;;;18.00;99.90;;;;;;5097586;28;20465;-81
2022/04/15 06:58:08;;;;;;;7.23;5.50;;;18.00;99.90;;;;;;5097922;28;20449;-79
2022/04/15 07:00:36;;;;;;;5.90;4.40;;;18.10;99.90;;;;;;5101736;27;20457;-79
2022/04/15 07:03:04;;;;;;;9.50;4.30;;;18.10;99.90;;;;;;5105826;27;20508;-79
2022/04/15 07:05:33;;;;;;;5.33;4.67;;;18.20;99.90;;;;;;5093765;28;20568;-80
2022/04/15 07:08:07;;;;;;;5.30;4.00;;;18.30;99.90;;;;;;5105396;27;20490;-79
2022/04/15 07:10:37;;;;;;;6.47;4.47;;;18.30;99.90;;;;;;5091937;28;20486;-79
2022/04/15 07:13:06;;;;;;;5.40;4.90;;;18.40;99.90;;;;;;5104584;27;20457;-79
2022/04/15 07:15:34;;;;;;;7.40;5.57;;;18.50;99.90;;;;;;5101454;28;20476;-82
2022/04/15 07:18:03;;;;;;;9.07;6.10;;;18.70;99.90;;;;;;5104003;28;20460;-80
2022/04/15 07:20:33;;;;;;;6.47;5.77;;;18.70;99.90;;;;;;5105102;28;20488;-80
2022/04/15 07:23:02;;;;;;;6.90;6.20;;;18.80;99.90;;;;;;5102260;28;20460;-76
2022/04/15 07:25:31;;;;;;;7.30;5.87;;;19.00;99.90;;;;;;5103862;28;20563;-79
2022/04/15 07:28:01;;;;;;;9.40;6.20;;;19.10;99.90;;;;;;5097077;28;20822;-79
2022/04/15 07:30:30;;;;;;;10.13;6.33;;;19.20;99.90;;;;;;5094389;28;20475;-80
2022/04/15 07:32:59;;;;;;;8.67;7.17;;;19.40;99.90;;;;;;5104054;28;20452;-80
2022/04/15 07:35:28;;;;;;;7.40;6.70;;;19.50;99.90;;;;;;5102767;28;20496;-79
2022/04/15 07:37:56;;;;;;;10.63;7.50;;;19.60;99.90;;;;;;5101059;28;20459;-80
2022/04/15 07:40:28;;;;;;;10.17;7.27;;;19.80;99.90;;;;;;5103373;28;20456;-78
2022/04/15 07:42:58;;;;;;;9.00;6.83;;;19.90;99.90;;;;;;5100936;28;20456;-80
2022/04/15 07:45:27;;;;;;;11.87;7.57;;;20.00;99.90;;;;;;5110766;28;20513;-79
2022/04/15 07:47:56;;;;;;;8.63;7.83;;;20.20;99.90;;;;;;5099510;28;20437;-80
2022/04/15 07:50:25;;;;;;;8.30;6.90;;;20.20;99.90;;;;;;5094357;28;20445;-80
2022/04/15 07:52:57;;;;;;;9.03;6.30;;;20.30;99.90;;;;;;5104927;28;20979;-79
2022/04/15 07:55:25;;;;;;;7.93;6.50;;;20.40;99.90;;;;;;5102989;28;21354;-80
2022/04/15 07:57:53;;;;;;;8.90;7.27;;;20.40;99.90;;;;;;5104085;28;21215;-79
2022/04/15 08:00:22;;;;;;;8.20;7.27;;;20.50;99.90;;;;;;5098180;28;20449;-80
2022/04/15 08:02:52;;;;;;;6.70;6.10;;;20.50;99.90;;;;;;5104831;28;20554;-80
2022/04/15 08:05:20;;;;;;;8.73;6.40;;;20.50;99.90;;;;;;5097090;28;20474;-81
2022/04/15 08:07:50;;;;;;;8.23;6.60;;;20.50;99.90;;;;;;5102190;28;20464;-80
2022/04/15 08:10:18;;;;;;;9.77;7.90;;;20.50;99.90;;;;;;5105934;28;20437;-79
2022/04/15 08:12:46;;;;;;;11.10;7.00;;;20.60;99.90;;;;;;5099085;28;20956;-80
2022/04/15 08:15:15;;;;;;;7.63;6.83;;;20.50;99.90;;;;;;5096514;28;20465;-78
2022/04/15 08:17:43;;;;;;;10.60;6.60;;;20.50;99.90;;;;;;5106241;27;20456;-78
2022/04/15 08:20:14;;;;;;;7.43;6.80;;;20.60;99.90;;;;;;5112586;27;20456;-78
2022/04/15 08:22:42;;;;;;;6.27;5.53;;;20.60;99.90;;;;;;5102769;28;20991;-78
2022/04/15 08:25:10;;;;;;;7.93;5.80;;;20.60;99.90;;;;;;5101793;28;20489;-79
2022/04/15 08:27:38;;;;;;;8.60;5.90;;;20.60;99.90;;;;;;5102829;27;20465;-81
2022/04/15 08:30:08;;;;;;;6.63;5.27;;;20.60;99.90;;;;;;5101068;27;20476;-79
2022/04/15 08:32:36;;;;;;;8.20;6.40;;;20.60;99.90;;;;;;5101478;27;20490;-78
2022/04/15 08:35:11;;;;;;;6.57;6.00;;;20.60;99.90;;;;;;5087589;28;20868;-77
2022/04/15 08:37:42;;;;;;;8.77;6.70;;;20.60;99.90;;;;;;5098500;27;20465;-79
2022/04/15 08:40:12;;;;;;;7.90;6.27;;;20.50;99.90;;;;;;5099263;28;20470;-78
2022/04/15 08:42:41;;;;;;;8.20;6.80;;;20.50;99.90;;;;;;5101791;27;20481;-79
2022/04/15 08:45:12;;;;;;;7.30;6.33;;;20.50;99.90;;;;;;5107433;27;20990;-78
2022/04/15 08:47:42;;;;;;;8.30;5.87;;;20.50;99.90;;;;;;5112505;27;21003;-79
2022/04/15 08:50:12;;;;;;;8.90;6.60;;;20.60;99.90;;;;;;5104520;28;20494;-80
2022/04/15 08:52:42;;;;;;;19.13;12.10;;;20.70;99.90;;;;;;5104625;27;20493;-81
2022/04/15 08:55:11;;;;;;;12.77;9.40;;;20.80;99.90;;;;;;5086561;28;20484;-80
2022/04/15 08:57:39;;;;;;;17.53;10.40;;;20.80;99.90;;;;;;5102941;27;20461;-79
2022/04/15 09:00:09;;;;;;;19.57;10.67;;;20.80;99.90;;;;;;5101698;27;20840;-80
2022/04/15 09:02:37;;;;;;;11.10;8.30;;;20.90;99.90;;;;;;5102770;28;20454;-79
2022/04/15 09:05:12;;;;;;;11.17;7.40;;;20.90;99.90;;;;;;5094560;28;20473;-79
2022/04/15 09:07:41;;;;;;;22.03;12.30;;;20.90;99.90;;;;;;5105038;28;20452;-79
2022/04/15 09:10:11;;;;;;;17.50;11.20;;;21.00;99.90;;;;;;5104268;28;20502;-80
2022/04/15 09:12:42;;;;;;;46.03;21.00;;;21.00;99.90;;;;;;5114756;27;21003;-78
2022/04/15 09:15:12;;;;;;;14.10;11.10;;;21.10;99.90;;;;;;5104110;28;20465;-79
2022/04/15 09:17:46;;;;;;;12.63;9.50;;;21.00;99.90;;;;;;5102097;28;20457;-78
2022/04/15 09:20:15;;;;;;;44.80;22.17;;;21.10;99.90;;;;;;5107097;27;20559;-79
2022/04/15 09:22:45;;;;;;;73.60;32.30;;;21.10;99.90;;;;;;5106780;28;20460;-78
2022/04/15 09:25:13;;;;;;;45.53;25.13;;;21.20;99.90;;;;;;5102847;28;20936;-79
2022/04/15 09:27:42;;;;;;;48.33;21.40;;;21.30;99.90;;;;;;5104130;28;20478;-79
2022/04/15 09:30:10;;;;;;;23.80;12.70;;;21.30;99.90;;;;;;5103149;28;20464;-79
2022/04/15 09:32:41;;;;;;;56.13;22.30;;;21.30;99.90;;;;;;5100313;28;20498;-78
2022/04/15 09:35:16;;;;;;;30.87;15.83;;;21.30;99.90;;;;;;5101250;28;21086;-80
2022/04/15 09:37:45;;;;;;;33.37;14.53;;;21.20;99.90;;;;;;5106085;27;20445;-78
2022/04/15 09:40:15;;;;;;;22.87;12.83;;;21.10;99.90;;;;;;5101644;28;20452;-79
2022/04/15 09:42:49;;;;;;;50.30;23.60;;;21.10;99.90;;;;;;5100484;28;20482;-79
2022/04/15 09:45:18;;;;;;;74.40;30.90;;;21.10;99.90;;;;;;5102897;28;20522;-80
2022/04/15 09:47:52;;;;;;;60.13;23.00;;;21.10;99.90;;;;;;5102827;28;20456;-79
2022/04/15 09:50:26;;;;;;;35.33;15.17;;;21.10;99.90;;;;;;5099120;28;22255;-78
2022/04/15 09:53:07;;;;;;;89.13;32.77;;;21.10;99.90;;;;;;5100879;27;20484;-78
2022/04/15 09:55:36;;;;;;;74.70;31.73;;;21.10;99.90;;;;;;5098873;28;20464;-77
2022/04/15 09:58:09;;;;;;;69.13;27.77;;;21.10;99.90;;;;;;5101854;28;20453;-78
2022/04/15 10:00:38;;;;;;;170.13;55.13;;;21.20;99.90;;;;;;5103590;28;20588;-78
2022/04/15 10:03:08;;;;;;;284.60;89.33;;;21.30;99.90;;;;;;5096343;28;20449;-78
2022/04/15 10:05:38;;;;;;;146.03;52.50;;;21.30;99.90;;;;;;5100783;28;20479;-77
2022/04/15 10:08:09;;;;;;;230.57;72.30;;;21.40;99.90;;;;;;5103291;28;20445;-79
2022/04/15 10:10:39;;;;;;;134.90;44.07;;;21.40;99.90;;;;;;5102381;28;20466;-79
2022/04/15 10:13:07;;;;;;;15.67;9.17;;;21.50;99.90;;;;;;5101492;27;20531;-78
2022/04/15 10:15:38;;;;;;;52.00;20.10;;;21.50;99.90;;;;;;5101409;27;20468;-81
2022/04/15 10:18:08;;;;;;;18.53;9.80;;;21.40;99.90;;;;;;5104564;28;20447;-80
2022/04/15 10:20:37;;;;;;;11.87;7.20;;;21.40;99.90;;;;;;5103657;27;21527;-80
2022/04/15 10:23:09;;;;;;;25.07;11.10;;;21.50;99.90;;;;;;5106947;27;20456;-79
2022/04/15 10:25:40;;;;;;;11.80;7.27;;;21.50;99.90;;;;;;5098875;28;20489;-80
2022/04/15 10:28:11;;;;;;;7.53;6.00;;;21.60;99.90;;;;;;5102922;27;20476;-80
2022/04/15 10:30:39;;;;;;;10.23;6.03;;;21.60;99.90;;;;;;5099325;27;20467;-80
2022/04/15 10:33:09;;;;;;;8.37;4.90;;;21.60;99.90;;;;;;5106004;27;20533;-80
2022/04/15 10:35:40;;;;;;;12.50;6.00;;;21.70;99.90;;;;;;5107387;27;20482;-80
2022/04/15 10:38:13;;;;;;;4.70;4.30;;;21.70;99.90;;;;;;5100440;27;20449;-80
2022/04/15 10:40:44;;;;;;;3.40;3.10;;;21.70;99.90;;;;;;5099917;27;21076;-81
2022/04/15 10:43:21;;;;;;;6.57;4.37;;;21.80;99.90;;;;;;5099166;28;20471;-80
2022/04/15 10:45:51;;;;;;;5.10;4.27;;;21.90;99.90;;;;;;5098824;28;20475;-80
2022/04/15 10:48:31;;;;;;;5.03;4.47;;;21.90;99.90;;;;;;5100670;28;21025;-80
2022/04/15 10:51:23;;;;;;;5.30;3.40;;;21.90;99.90;;;;;;5101816;28;20456;-80
2022/04/15 10:53:52;;;;;;;7.17;3.57;;;21.90;99.90;;;;;;5100685;27;20474;-80
2022/04/15 10:56:23;;;;;;;8.03;3.47;;;21.80;99.90;;;;;;5109406;27;20495;-81
2022/04/15 11:01:53;;;;;;;6.00;4.17;;;21.70;99.90;;;;;;5104301;27;20459;-81
2022/04/15 11:04:26;;;;;;;5.30;4.40;;;21.70;99.90;;;;;;5101618;27;21183;-82
2022/04/15 11:06:55;;;;;;;4.90;4.23;;;21.70;99.90;;;;;;5108597;27;20448;-80
2022/04/15 11:09:25;;;;;;;5.60;3.27;;;21.70;99.90;;;;;;5102962;27;20452;-82
2022/04/15 11:11:53;;;;;;;4.73;3.30;;;21.80;99.90;;;;;;5087291;28;20445;-81
2022/04/15 11:14:34;;;;;;;4.80;3.60;;;21.80;99.90;;;;;;5105691;28;20477;-81
2022/04/15 11:17:03;;;;;;;3.07;2.87;;;21.80;99.90;;;;;;5104952;28;21048;-81
2022/04/15 11:19:33;;;;;;;4.23;3.10;;;21.80;99.90;;;;;;5099508;28;20445;-80
2022/04/15 11:22:02;;;;;;;3.63;3.13;;;21.90;99.90;;;;;;5103932;28;20454;-82
2022/04/15 11:24:33;;;;;;;4.53;4.10;;;21.90;99.90;;;;;;5102112;28;20468;-81
2022/04/15 11:27:03;;;;;;;3.50;2.80;;;21.90;99.90;;;;;;5101554;28;20484;-82
2022/04/15 11:29:33;;;;;;;3.40;3.10;;;21.90;99.90;;;;;;5100636;28;20536;-80
2022/04/15 11:32:05;;;;;;;3.40;3.10;;;21.90;99.90;;;;;;5105120;28;20470;-80
2022/04/15 11:34:34;;;;;;;3.47;2.80;;;21.90;99.90;;;;;;5104642;28;21041;-82
2022/04/15 11:37:04;;;;;;;3.20;2.70;;;22.00;99.90;;;;;;5106141;28;20930;-82
2022/04/15 11:39:36;;;;;;;3.23;3.03;;;21.90;99.90;;;;;;5108662;28;20451;-80
2022/04/15 11:42:12;;;;;;;6.03;2.80;;;21.90;99.90;;;;;;5104331;28;20441;-82
2022/04/15 11:44:43;;;;;;;3.77;2.80;;;21.90;99.90;;;;;;5095888;28;20468;-81
2022/04/15 11:47:19;;;;;;;8.10;3.60;;;22.00;99.90;;;;;;5104482;28;20485;-84
2022/04/15 11:49:49;;;;;;;2.67;2.47;;;22.00;99.90;;;;;;5096994;28;20449;-78
2022/04/15 11:52:22;;;;;;;3.00;2.67;;;22.00;99.90;;;;;;5103346;27;20437;-78
2022/04/15 11:54:51;;;;;;;7.93;2.93;;;22.10;99.90;;;;;;5103217;27;20525;-77
2022/04/15 11:57:20;;;;;;;3.33;2.30;;;22.10;99.90;;;;;;5104826;27;20460;-77
2022/04/15 11:59:50;;;;;;;3.80;2.50;;;22.10;99.90;;;;;;5102577;27;20468;-78
2022/04/15 12:02:22;;;;;;;2.17;1.98;;;22.20;99.90;;;;;;5102313;27;20447;-78
2022/04/15 12:04:53;;;;;;;3.40;3.10;;;22.20;99.90;;;;;;5105976;27;20218;-79
2022/04/15 12:07:22;;;;;;;4.67;3.00;;;22.20;99.90;;;;;;5111790;27;21151;-79
2022/04/15 12:09:52;;;;;;;4.33;3.93;;;22.20;99.90;;;;;;5110204;27;20462;-79
2022/04/15 12:12:21;;;;;;;6.30;3.37;;;22.10;99.90;;;;;;5103033;28;20461;-78
2022/04/15 12:14:51;;;;;;;6.03;3.20;;;22.10;99.90;;;;;;5106698;27;21013;-81
2022/04/15 12:17:21;;;;;;;5.23;2.70;;;22.20;99.90;;;;;;5106306;27;20459;-81
2022/04/15 12:19:50;;;;;;;4.93;3.93;;;22.30;99.90;;;;;;5109850;27;20452;-78
2022/04/15 12:22:19;;;;;;;4.73;3.53;;;22.30;99.90;;;;;;5119824;27;21028;-79
2022/04/15 12:24:47;;;;;;;4.30;3.50;;;22.30;99.90;;;;;;5114395;28;20496;-78
2022/04/15 12:27:20;;;;;;;3.47;3.17;;;22.30;99.90;;;;;;5107197;28;20449;-79
2022/04/15 12:29:51;;;;;;;3.50;3.20;;;22.30;99.90;;;;;;5105532;28;20482;-80
2022/04/15 12:32:25;;;;;;;3.07;2.60;;;22.30;99.90;;;;;;5108314;28;20474;-79
2022/04/15 12:35:13;;;;;;;3.23;2.93;;;22.20;99.90;;;;;;5112456;28;20480;-82
2022/04/15 12:37:44;;;;;;;4.77;3.30;;;22.30;99.90;;;;;;5116290;28;20440;-79
2022/04/15 12:40:30;;;;;;;4.23;3.83;;;22.30;99.90;;;;;;5110437;28;20436;-79
2022/04/15 12:43:11;;;;;;;5.00;4.03;;;22.30;99.90;;;;;;5115519;28;20441;-82
2022/04/15 12:45:50;;;;;;;3.47;3.17;;;22.20;99.90;;;;;;5111886;28;20524;-79
2022/04/15 12:48:19;;;;;;;3.40;3.10;;;22.20;99.90;;;;;;5113249;28;20497;-79
2022/04/15 12:50:48;;;;;;;4.67;3.27;;;22.30;99.90;;;;;;5100633;28;20487;-81
2022/04/15 12:53:19;;;;;;;4.20;3.90;;;22.30;99.90;;;;;;5113355;28;20465;-80
2022/04/15 12:55:49;;;;;;;4.40;4.00;;;22.30;99.90;;;;;;5105965;28;20515;-80
2022/04/15 12:58:20;;;;;;;3.13;2.83;;;22.30;99.90;;;;;;5079582;28;20449;-79